Time;durP1;ratioP1;P1;durP2;ratioP2;P2;SDS_P1;SDS_P2;PMS_P1;PMS_P2;Temp;Humidity;BMP_temperature;BMP_pressure;BME280_temperature;BME280_humidity;BME280_pressure;Samples;Min_cycle;Max_cycle;Signal;HPM_P1;HPM_P2
2021/01/21 00:02:11;;;;;;;8.00;6.20;;;-10.70;83.50;;;;;;5014429;28;20038;-79
2021/01/21 00:04:37;;;;;;;8.65;4.78;;;-10.70;83.40;;;;;;4996980;28;20021;-78
2021/01/21 00:07:03;;;;;;;10.30;4.93;;;-10.70;83.20;;;;;;5003098;28;20026;-79
2021/01/21 00:09:28;;;;;;;15.02;5.55;;;-10.70;83.40;;;;;;5007948;28;20033;-80
2021/01/21 00:11:54;;;;;;;10.80;5.25;;;-10.70;83.40;;;;;;5001017;28;20045;-80
2021/01/21 00:14:20;;;;;;;7.30;5.22;;;-10.70;83.20;;;;;;5014801;28;20104;-80
2021/01/21 00:16:46;;;;;;;9.00;5.03;;;-10.70;83.20;;;;;;5014957;28;20026;-78
2021/01/21 00:19:12;;;;;;;8.27;4.80;;;-10.70;83.20;;;;;;5015968;28;20061;-81
2021/01/21 00:21:37;;;;;;;8.35;5.32;;;-10.70;83.00;;;;;;5015346;28;20479;-80
2021/01/21 00:24:04;;;;;;;8.07;5.10;;;-10.70;82.80;;;;;;5015191;28;20115;-78
2021/01/21 00:26:30;;;;;;;5.75;3.83;;;-10.70;82.80;;;;;;5014638;28;20065;-80
2021/01/21 00:28:55;;;;;;;13.55;3.83;;;-10.70;82.00;;;;;;5015077;28;20025;-78
2021/01/21 00:31:21;;;;;;;5.20;4.13;;;-10.60;82.10;;;;;;5021048;28;20037;-80
2021/01/21 00:33:47;;;;;;;13.05;5.68;;;-10.60;82.50;;;;;;5014926;28;20022;-80
2021/01/21 00:36:13;;;;;;;8.18;4.75;;;-10.60;82.60;;;;;;5016038;28;20482;-79
2021/01/21 00:38:40;;;;;;;6.68;4.07;;;-10.60;82.30;;;;;;4997235;28;20022;-81
2021/01/21 00:41:06;;;;;;;10.43;5.18;;;-10.50;81.90;;;;;;5015372;28;20022;-80
2021/01/21 00:43:32;;;;;;;10.70;5.45;;;-10.50;81.60;;;;;;5015344;28;20479;-79
2021/01/21 00:45:57;;;;;;;10.15;5.53;;;-10.50;81.40;;;;;;5012202;28;20108;-77
2021/01/21 00:48:23;;;;;;;7.63;4.35;;;-10.50;81.20;;;;;;5015738;28;20036;-79
2021/01/21 00:50:49;;;;;;;9.60;5.15;;;-10.40;81.10;;;;;;4996480;28;20552;-79
2021/01/21 00:53:15;;;;;;;7.63;3.75;;;-10.40;81.20;;;;;;5007893;28;20023;-80
2021/01/21 00:55:41;;;;;;;8.93;5.03;;;-10.50;81.20;;;;;;5008048;28;20018;-79
2021/01/21 00:58:08;;;;;;;8.70;5.75;;;-10.50;81.10;;;;;;5013691;28;20706;-79
2021/01/21 01:00:34;;;;;;;9.55;5.18;;;-10.50;81.00;;;;;;5013797;28;20060;-80
2021/01/21 01:02:59;;;;;;;7.75;4.57;;;-10.50;81.00;;;;;;5013429;28;20451;-79
2021/01/21 01:05:25;;;;;;;3.20;2.70;;;-10.50;81.00;;;;;;5013537;28;20053;-80
2021/01/21 01:07:52;;;;;;;9.20;4.78;;;-10.50;81.40;;;;;;4995504;28;20115;-80
2021/01/21 01:10:18;;;;;;;5.13;2.97;;;-10.60;82.80;;;;;;5013581;28;20022;-80
2021/01/21 01:12:44;;;;;;;8.18;5.28;;;-10.60;82.50;;;;;;5014876;28;20029;-79
2021/01/21 01:15:11;;;;;;;10.40;5.35;;;-10.70;82.50;;;;;;4995809;28;20033;-80
2021/01/21 01:17:37;;;;;;;8.95;4.97;;;-10.70;82.00;;;;;;5013235;28;20468;-80
2021/01/21 01:20:04;;;;;;;7.68;4.40;;;-10.70;81.50;;;;;;5012874;28;20038;-79
2021/01/21 01:22:30;;;;;;;9.45;4.95;;;-10.70;81.60;;;;;;4995904;28;20022;-78
2021/01/21 01:24:56;;;;;;;7.50;5.38;;;-10.70;81.80;;;;;;5013073;28;20445;-80
2021/01/21 01:27:22;;;;;;;9.30;4.80;;;-10.70;81.70;;;;;;5013137;28;20030;-80
2021/01/21 01:29:48;;;;;;;10.73;5.47;;;-10.70;81.40;;;;;;5013051;28;20058;-79
2021/01/21 01:32:14;;;;;;;7.55;5.25;;;-10.70;81.20;;;;;;5013096;28;20018;-79
2021/01/21 01:34:40;;;;;;;11.27;4.95;;;-10.70;81.20;;;;;;5012878;28;20458;-80
2021/01/21 01:37:05;;;;;;;12.20;6.05;;;-10.70;81.30;;;;;;5015081;28;20097;-79
2021/01/21 01:39:31;;;;;;;9.13;5.05;;;-10.70;81.30;;;;;;5017155;28;20061;-79
2021/01/21 01:41:57;;;;;;;11.68;6.07;;;-10.70;81.10;;;;;;4999182;28;20121;-79
2021/01/21 01:44:23;;;;;;;10.63;6.30;;;-10.70;80.90;;;;;;5017321;28;20109;-78
2021/01/21 01:46:49;;;;;;;8.52;5.82;;;-10.70;80.80;;;;;;5017211;28;20038;-80
2021/01/21 01:49:17;;;;;;;7.85;3.58;;;-10.70;80.80;;;;;;5016662;28;20394;-78
2021/01/21 01:51:44;;;;;;;5.15;3.75;;;-10.80;80.90;;;;;;4999424;28;20406;-79
2021/01/21 01:54:12;;;;;;;8.68;4.78;;;-10.80;81.90;;;;;;5016795;28;20024;-79
2021/01/21 01:56:38;;;;;;;6.57;4.53;;;-10.90;81.90;;;;;;5017116;28;20487;-79
2021/01/21 01:59:04;;;;;;;9.98;5.07;;;-10.90;81.60;;;;;;5014119;28;20039;-79
2021/01/21 02:01:32;;;;;;;5.63;4.03;;;-10.90;81.40;;;;;;5009948;28;20386;-80
2021/01/21 02:03:58;;;;;;;10.15;4.40;;;-11.00;81.30;;;;;;5013768;28;20431;-80
2021/01/21 02:06:24;;;;;;;8.65;4.65;;;-11.00;81.80;;;;;;4996297;28;20028;-79
2021/01/21 02:08:50;;;;;;;9.65;6.05;;;-11.00;81.20;;;;;;5009176;28;20068;-79
2021/01/21 02:11:34;;;;;;;5.85;3.90;;;-11.00;81.20;;;;;;5016368;28;20029;-80
2021/01/21 02:14:01;;;;;;;8.40;3.92;;;-11.00;81.10;;;;;;5016826;28;20028;-80
2021/01/21 02:16:49;;;;;;;8.07;4.55;;;-10.90;81.20;;;;;;5003848;28;20026;-80
2021/01/21 02:19:39;;;;;;;6.70;4.85;;;-10.90;81.20;;;;;;5025289;28;20499;-79
2021/01/21 02:22:22;;;;;;;8.13;5.70;;;-11.00;80.80;;;;;;5016344;28;20498;-79
2021/01/21 02:25:04;;;;;;;7.13;3.63;;;-11.00;80.60;;;;;;5015972;28;20455;-79
2021/01/21 02:27:46;;;;;;;8.90;4.80;;;-11.00;80.70;;;;;;5016187;28;20025;-78
2021/01/21 02:30:28;;;;;;;6.03;3.67;;;-11.00;81.00;;;;;;5015966;28;20037;-79
2021/01/21 02:33:07;;;;;;;8.20;4.78;;;-11.00;80.70;;;;;;4999215;28;20014;-77
2021/01/21 02:35:33;;;;;;;8.48;4.43;;;-11.00;80.80;;;;;;5015940;28;20029;-77
2021/01/21 02:38:01;;;;;;;6.65;4.32;;;-11.00;80.80;;;;;;5016224;28;20018;-79
2021/01/21 02:40:27;;;;;;;7.63;4.45;;;-11.00;81.00;;;;;;4998087;28;20495;-79
2021/01/21 02:42:53;;;;;;;7.13;4.50;;;-10.90;81.10;;;;;;5015882;28;20076;-79
2021/01/21 02:45:19;;;;;;;12.50;5.63;;;-10.90;81.00;;;;;;5016620;28;20057;-79
2021/01/21 02:47:45;;;;;;;10.43;5.45;;;-10.90;80.70;;;;;;5014949;28;20025;-80
2021/01/21 02:50:11;;;;;;;9.30;5.28;;;-10.80;80.60;;;;;;5015656;28;20076;-79
2021/01/21 02:52:43;;;;;;;7.63;4.20;;;-10.80;80.50;;;;;;4999335;28;20435;-78
2021/01/21 02:55:32;;;;;;;8.10;3.58;;;-10.70;80.30;;;;;;5008575;28;20029;-79
2021/01/21 02:58:03;;;;;;;5.93;4.20;;;-10.70;80.30;;;;;;5015191;28;20041;-80
2021/01/21 03:00:32;;;;;;;9.40;5.25;;;-10.60;80.60;;;;;;5013281;28;20030;-77
2021/01/21 03:03:00;;;;;;;7.72;4.82;;;-10.60;80.30;;;;;;5001972;28;20117;-78
2021/01/21 03:05:28;;;;;;;4.63;3.00;;;-10.60;80.40;;;;;;5015270;28;20026;-79
2021/01/21 03:07:55;;;;;;;10.20;4.55;;;-10.50;80.60;;;;;;5015094;28;20080;-79
2021/01/21 03:10:22;;;;;;;7.32;3.97;;;-10.50;80.50;;;;;;4997432;28;20037;-79
2021/01/21 03:12:55;;;;;;;9.18;4.68;;;-10.50;80.20;;;;;;5015150;28;20033;-79
2021/01/21 03:15:22;;;;;;;6.07;3.50;;;-10.50;79.70;;;;;;5001913;28;20514;-78
2021/01/21 03:17:48;;;;;;;6.30;3.85;;;-10.40;79.60;;;;;;5014997;28;20030;-78
2021/01/21 03:20:15;;;;;;;8.33;3.07;;;-10.40;79.60;;;;;;5014898;28;20089;-79
2021/01/21 03:22:43;;;;;;;6.80;3.88;;;-10.40;79.80;;;;;;5015040;28;20255;-80
2021/01/21 03:25:10;;;;;;;5.25;2.88;;;-10.40;79.80;;;;;;5014925;28;20041;-78
2021/01/21 03:27:36;;;;;;;6.70;3.92;;;-10.40;79.50;;;;;;5014913;28;20021;-80
2021/01/21 03:30:04;;;;;;;6.45;3.45;;;-10.40;79.30;;;;;;4997160;28;20026;-78
2021/01/21 03:32:30;;;;;;;4.93;3.30;;;-10.40;79.20;;;;;;4997259;28;20033;-79
2021/01/21 03:34:55;;;;;;;8.27;4.10;;;-10.40;78.90;;;;;;5015124;28;20382;-79
2021/01/21 03:37:22;;;;;;;6.80;4.55;;;-10.30;78.90;;;;;;5015460;28;20547;-81
2021/01/21 03:39:48;;;;;;;7.18;4.28;;;-10.30;78.80;;;;;;4997215;28;20046;-79
2021/01/21 03:42:13;;;;;;;5.10;2.78;;;-10.30;78.70;;;;;;5006951;28;20040;-79
2021/01/21 03:44:39;;;;;;;8.65;3.90;;;-10.30;78.90;;;;;;5017286;28;20029;-79
2021/01/21 03:47:05;;;;;;;11.02;3.85;;;-10.20;79.10;;;;;;5014617;28;20025;-79
2021/01/21 03:49:33;;;;;;;6.35;3.92;;;-10.20;79.60;;;;;;5014707;28;20030;-80
2021/01/21 03:51:59;;;;;;;5.65;3.05;;;-10.20;78.90;;;;;;5014812;28;20349;-80
2021/01/21 03:54:26;;;;;;;7.05;2.47;;;-10.20;78.80;;;;;;4997233;28;20022;-81
2021/01/21 03:56:51;;;;;;;8.48;3.90;;;-10.20;79.60;;;;;;5014729;28;20095;-79
2021/01/21 03:59:17;;;;;;;6.25;2.83;;;-10.30;80.40;;;;;;4996539;28;20069;-78
2021/01/21 04:01:43;;;;;;;6.75;3.58;;;-10.30;81.30;;;;;;5013871;28;20491;-80
2021/01/21 04:04:09;;;;;;;5.65;3.33;;;-10.40;81.00;;;;;;4996513;28;20042;-79
2021/01/21 04:06:35;;;;;;;6.35;4.53;;;-10.40;80.50;;;;;;5017995;28;20078;-77
2021/01/21 04:09:01;;;;;;;6.32;2.80;;;-10.40;80.40;;;;;;5018911;28;20026;-80
2021/01/21 04:11:27;;;;;;;8.98;4.68;;;-10.40;80.40;;;;;;5014442;28;20022;-79
2021/01/21 04:13:53;;;;;;;7.00;4.18;;;-10.40;81.00;;;;;;4997912;28;20029;-78
2021/01/21 04:16:18;;;;;;;7.43;4.18;;;-10.40;80.90;;;;;;5014597;28;20080;-78
2021/01/21 04:18:44;;;;;;;7.30;4.50;;;-10.50;80.40;;;;;;5014376;28;20021;-80
2021/01/21 04:21:10;;;;;;;5.95;3.63;;;-10.50;80.30;;;;;;5016453;28;20029;-80
2021/01/21 04:23:36;;;;;;;6.07;3.75;;;-10.50;80.50;;;;;;4998749;28;20022;-79
2021/01/21 04:26:03;;;;;;;9.55;4.13;;;-10.50;80.30;;;;;;5015047;28;20022;-80
2021/01/21 04:28:29;;;;;;;8.38;3.92;;;-10.50;80.80;;;;;;5013956;28;20029;-79
2021/01/21 04:30:55;;;;;;;6.53;3.00;;;-10.60;81.60;;;;;;5014208;28;20029;-79
2021/01/21 04:33:20;;;;;;;12.60;6.28;;;-10.60;81.80;;;;;;5013887;28;20488;-78
2021/01/21 04:35:46;;;;;;;8.27;4.13;;;-10.70;82.80;;;;;;5013647;28;20427;-79
2021/01/21 04:38:12;;;;;;;7.00;4.05;;;-10.70;83.00;;;;;;5013916;28;20467;-78
2021/01/21 04:40:38;;;;;;;7.82;4.78;;;-10.80;83.50;;;;;;5013324;28;20030;-79
2021/01/21 04:43:04;;;;;;;8.70;3.58;;;-10.90;84.20;;;;;;5013919;28;20439;-79
2021/01/21 04:45:30;;;;;;;7.95;4.22;;;-11.00;84.60;;;;;;4996761;28;20044;-78
2021/01/21 04:47:56;;;;;;;5.93;3.80;;;-11.10;85.10;;;;;;5013976;28;20014;-80
2021/01/21 04:50:23;;;;;;;10.75;4.47;;;-11.10;85.90;;;;;;5013435;28;20045;-78
2021/01/21 04:52:51;;;;;;;8.05;3.40;;;-11.20;86.00;;;;;;5013639;28;20018;-79
2021/01/21 04:55:22;;;;;;;7.03;4.40;;;-11.20;86.10;;;;;;5013073;28;20100;-80
2021/01/21 04:57:59;;;;;;;10.63;4.30;;;-11.30;86.50;;;;;;4996074;28;20538;-80
2021/01/21 05:00:27;;;;;;;7.90;3.83;;;-11.40;86.70;;;;;;4995043;28;20038;-80
2021/01/21 05:02:54;;;;;;;8.70;4.55;;;-11.40;86.90;;;;;;5011723;28;20049;-80
2021/01/21 05:05:22;;;;;;;6.95;3.35;;;-11.50;86.90;;;;;;5003104;28;20026;-80
2021/01/21 05:07:48;;;;;;;4.68;2.85;;;-11.50;87.30;;;;;;4996064;28;20022;-79
2021/01/21 05:10:16;;;;;;;8.43;4.57;;;-11.50;88.00;;;;;;5013253;28;20136;-81
2021/01/21 05:12:42;;;;;;;9.43;5.38;;;-11.60;87.70;;;;;;5012214;28;20021;-79
2021/01/21 05:15:08;;;;;;;7.03;3.22;;;-11.50;88.00;;;;;;5011342;28;20048;-80
2021/01/21 05:17:34;;;;;;;7.40;4.03;;;-11.50;88.00;;;;;;5010451;28;20022;-79
2021/01/21 05:20:01;;;;;;;9.40;4.43;;;-11.50;87.90;;;;;;5003690;28;20407;-78
2021/01/21 05:22:27;;;;;;;9.57;4.28;;;-11.50;87.80;;;;;;5006761;28;20018;-78
2021/01/21 05:24:54;;;;;;;9.98;5.13;;;-11.50;88.20;;;;;;5002094;28;20029;-79
2021/01/21 05:27:21;;;;;;;10.18;4.07;;;-11.40;88.30;;;;;;5013163;28;20124;-80
2021/01/21 05:29:48;;;;;;;7.78;4.65;;;-11.40;88.40;;;;;;5002094;28;20073;-79
2021/01/21 05:32:17;;;;;;;9.63;4.82;;;-11.30;88.50;;;;;;5006641;28;20053;-77
2021/01/21 05:34:47;;;;;;;6.97;3.60;;;-11.40;88.30;;;;;;5009372;28;20093;-80
2021/01/21 05:37:14;;;;;;;13.65;4.40;;;-11.30;88.60;;;;;;4986234;28;20353;-80
2021/01/21 05:39:45;;;;;;;8.07;4.65;;;-11.30;88.90;;;;;;5007729;28;20029;-81
2021/01/21 05:42:11;;;;;;;9.52;4.88;;;-11.30;89.00;;;;;;4994547;28;20014;-79
2021/01/21 05:44:37;;;;;;;7.87;4.77;;;-11.20;89.10;;;;;;5006905;28;20450;-80
2021/01/21 05:47:08;;;;;;;7.07;3.40;;;-11.20;89.10;;;;;;5013271;28;20330;-81
2021/01/21 05:49:35;;;;;;;4.30;2.05;;;-11.20;88.90;;;;;;5012871;28;20256;-81
2021/01/21 05:52:01;;;;;;;11.18;5.68;;;-11.20;88.30;;;;;;5001709;28;20065;-82
2021/01/21 05:54:28;;;;;;;5.38;3.65;;;-11.20;88.10;;;;;;5001025;28;20033;-83
2021/01/21 05:56:56;;;;;;;7.97;3.70;;;-11.20;88.30;;;;;;5013111;28;20022;-81
2021/01/21 05:59:27;;;;;;;6.55;3.47;;;-11.20;88.60;;;;;;5011039;28;20044;-80
2021/01/21 06:01:56;;;;;;;12.88;5.05;;;-11.20;89.10;;;;;;5007546;28;20104;-80
2021/01/21 06:04:26;;;;;;;8.18;4.00;;;-11.10;89.00;;;;;;5008155;28;20571;-80
2021/01/21 06:06:55;;;;;;;7.25;4.60;;;-11.10;88.50;;;;;;5003202;28;20527;-79
2021/01/21 06:09:25;;;;;;;11.40;4.32;;;-11.10;89.10;;;;;;5010666;28;20026;-80
2021/01/21 06:11:52;;;;;;;9.23;5.32;;;-10.90;89.20;;;;;;5007866;28;20019;-80
2021/01/21 06:14:23;;;;;;;5.28;3.60;;;-10.90;89.00;;;;;;4994239;28;20027;-79
2021/01/21 06:16:51;;;;;;;7.30;4.53;;;-10.90;88.90;;;;;;5009704;28;20121;-80
2021/01/21 06:19:17;;;;;;;5.95;4.78;;;-10.90;88.60;;;;;;4995246;28;20062;-80
2021/01/21 06:21:47;;;;;;;5.82;3.58;;;-10.90;88.70;;;;;;4994580;28;20065;-79
2021/01/21 06:24:18;;;;;;;8.45;3.88;;;-10.80;89.10;;;;;;5016146;28;20442;-80
2021/01/21 06:26:51;;;;;;;8.50;5.60;;;-10.90;88.90;;;;;;4996632;28;20073;-79
2021/01/21 06:29:18;;;;;;;8.88;3.88;;;-10.90;89.20;;;;;;4991069;28;20077;-82
2021/01/21 06:31:48;;;;;;;8.60;4.32;;;-10.80;89.30;;;;;;4999905;28;20022;-82
2021/01/21 06:34:22;;;;;;;6.32;3.25;;;-10.80;89.10;;;;;;5000548;28;20029;-79
2021/01/21 06:36:52;;;;;;;5.47;3.97;;;-10.80;89.30;;;;;;4998618;28;20022;-79
2021/01/21 06:39:28;;;;;;;8.82;4.63;;;-10.80;89.10;;;;;;4998429;28;20486;-79
2021/01/21 06:41:57;;;;;;;6.03;3.90;;;-10.80;89.70;;;;;;5014699;28;20022;-80
2021/01/21 06:44:23;;;;;;;8.93;4.43;;;-10.80;90.00;;;;;;5015001;28;20026;-80
2021/01/21 06:46:52;;;;;;;5.95;3.45;;;-10.70;90.10;;;;;;5013528;28;20489;-78
2021/01/21 06:49:19;;;;;;;5.15;2.72;;;-10.60;89.80;;;;;;5014556;28;20041;-81
2021/01/21 06:51:49;;;;;;;7.13;3.30;;;-10.50;89.80;;;;;;5014637;28;20064;-81
2021/01/21 06:54:19;;;;;;;9.73;3.85;;;-10.40;89.20;;;;;;5015768;28;20073;-81
2021/01/21 06:56:45;;;;;;;8.70;4.90;;;-10.50;88.30;;;;;;5014666;28;20450;-80
2021/01/21 06:59:11;;;;;;;4.75;3.20;;;-10.60;88.90;;;;;;5013408;28;20034;-81
2021/01/21 07:01:40;;;;;;;4.88;2.72;;;-10.60;89.10;;;;;;4997619;28;20018;-79
2021/01/21 07:04:08;;;;;;;5.97;3.45;;;-10.60;89.00;;;;;;5012931;28;20026;-80
2021/01/21 07:06:53;;;;;;;7.97;4.78;;;-10.60;88.60;;;;;;5015400;28;20026;-81
2021/01/21 07:09:28;;;;;;;7.38;5.65;;;-10.60;89.20;;;;;;5014054;28;20032;-80
2021/01/21 07:12:01;;;;;;;7.95;5.25;;;-10.60;88.80;;;;;;4997228;28;20065;-81
2021/01/21 07:14:34;;;;;;;6.93;4.30;;;-10.60;89.10;;;;;;5015157;28;20076;-79
2021/01/21 07:17:03;;;;;;;7.28;3.58;;;-10.60;88.60;;;;;;5015497;28;20021;-79
2021/01/21 07:19:35;;;;;;;13.43;5.32;;;-10.50;88.80;;;;;;5015343;28;20450;-79
2021/01/21 07:22:23;;;;;;;9.38;6.35;;;-10.50;88.90;;;;;;5015496;28;20434;-80
2021/01/21 07:25:06;;;;;;;6.82;3.85;;;-10.40;89.50;;;;;;5014917;28;20033;-79
2021/01/21 07:27:34;;;;;;;9.38;5.95;;;-10.30;89.40;;;;;;5015950;28;20570;-80
2021/01/21 07:30:22;;;;;;;7.97;4.75;;;-10.30;88.80;;;;;;5015485;28;20036;-80
2021/01/21 07:32:48;;;;;;;8.10;5.13;;;-10.30;89.60;;;;;;5015510;28;20018;-81
2021/01/21 07:35:32;;;;;;;8.52;5.45;;;-10.30;89.40;;;;;;4997652;28;20487;-81
2021/01/21 07:37:59;;;;;;;7.80;4.20;;;-10.30;90.10;;;;;;5015651;28;20026;-80
2021/01/21 07:40:49;;;;;;;12.63;6.25;;;-10.20;89.60;;;;;;4998333;28;20033;-80
2021/01/21 07:43:15;;;;;;;6.90;3.95;;;-10.30;89.70;;;;;;5008141;28;20395;-80
2021/01/21 07:45:41;;;;;;;14.73;8.07;;;-10.20;90.00;;;;;;5014796;28;20438;-81
2021/01/21 07:48:20;;;;;;;19.45;4.22;;;-10.20;90.30;;;;;;4999428;28;20056;-79
2021/01/21 07:50:47;;;;;;;12.90;6.40;;;-10.20;90.20;;;;;;5016137;28;20097;-81
2021/01/21 07:53:18;;;;;;;7.00;4.93;;;-10.20;90.00;;;;;;5015954;28;20084;-80
2021/01/21 07:55:46;;;;;;;14.88;6.13;;;-10.20;90.20;;;;;;5015181;28;20529;-81
2021/01/21 07:58:37;;;;;;;10.82;4.65;;;-10.20;90.20;;;;;;5015127;28;20036;-81
2021/01/21 08:01:08;;;;;;;11.00;5.53;;;-10.20;90.30;;;;;;5013632;28;20143;-80
2021/01/21 08:03:40;;;;;;;4.45;3.47;;;-10.20;90.10;;;;;;4996584;28;20144;-80
2021/01/21 08:06:07;;;;;;;5.85;3.95;;;-10.20;90.50;;;;;;4996865;28;20491;-81
2021/01/21 08:08:33;;;;;;;13.88;5.68;;;-10.30;89.30;;;;;;5014929;28;20076;-78
2021/01/21 08:11:08;;;;;;;8.57;5.68;;;-10.30;89.80;;;;;;5014997;28;20038;-80
2021/01/21 08:13:34;;;;;;;11.52;6.45;;;-10.20;89.80;;;;;;4997079;28;20087;-80
2021/01/21 08:16:01;;;;;;;12.30;7.85;;;-10.10;90.20;;;;;;5015252;28;20053;-80
2021/01/21 08:18:27;;;;;;;6.78;5.20;;;-10.10;90.00;;;;;;4997161;28;20030;-81
2021/01/21 08:20:53;;;;;;;10.05;7.00;;;-10.10;90.10;;;;;;5015839;28;20041;-81
2021/01/21 08:23:19;;;;;;;10.57;6.25;;;-10.00;90.50;;;;;;5014341;28;20024;-81
2021/01/21 08:25:47;;;;;;;13.13;7.32;;;-9.80;90.70;;;;;;5015384;28;20022;-81
2021/01/21 08:28:18;;;;;;;15.80;7.43;;;-9.70;90.80;;;;;;5015352;28;20033;-81
2021/01/21 08:30:45;;;;;;;8.60;5.40;;;-9.60;90.70;;;;;;5014818;28;20030;-79
2021/01/21 08:33:14;;;;;;;;;;;-9.60;90.70;;;;;;5015120;28;20049;-81
2021/01/21 08:36:04;;;;;;;7.93;4.97;;;-9.50;90.60;;;;;;4996823;28;19905;-81
2021/01/21 08:38:35;;;;;;;8.20;5.10;;;-9.50;90.60;;;;;;5013939;28;20018;-80
2021/01/21 08:41:03;;;;;;;8.88;5.18;;;-9.50;90.40;;;;;;5014403;28;20018;-81
2021/01/21 08:43:31;;;;;;;15.32;7.43;;;-9.50;90.40;;;;;;4996627;28;20145;-81
2021/01/21 08:45:57;;;;;;;8.73;6.15;;;-9.50;90.20;;;;;;5012913;28;20056;-82
2021/01/21 08:48:27;;;;;;;13.15;6.60;;;-9.40;90.60;;;;;;5013918;28;20216;-81
2021/01/21 08:50:54;;;;;;;9.77;5.75;;;-9.40;90.70;;;;;;5013663;28;20014;-81
2021/01/21 08:53:24;;;;;;;14.60;9.77;;;-9.30;90.90;;;;;;5013759;28;20021;-79
2021/01/21 08:55:52;;;;;;;18.75;9.57;;;-9.20;91.10;;;;;;5013479;28;20018;-78
2021/01/21 08:58:26;;;;;;;16.95;10.40;;;-9.00;91.20;;;;;;5013440;28;20462;-81
2021/01/21 09:01:06;;;;;;;22.05;10.27;;;-8.90;91.10;;;;;;4995579;28;20034;-78
2021/01/21 09:03:50;;;;;;;20.30;10.50;;;-8.80;91.10;;;;;;5013929;28;20084;-81
2021/01/21 09:06:19;;;;;;;20.17;12.00;;;-8.70;91.00;;;;;;5013545;28;20498;-79
2021/01/21 09:08:50;;;;;;;21.60;10.65;;;-8.60;90.90;;;;;;5013382;28;20018;-81
2021/01/21 09:11:39;;;;;;;19.45;12.85;;;-8.50;90.70;;;;;;5013467;28;20025;-80
2021/01/21 09:14:07;;;;;;;18.20;10.63;;;-8.40;90.60;;;;;;5013275;28;20022;-78
2021/01/21 09:16:45;;;;;;;19.67;11.43;;;-8.40;90.60;;;;;;5013298;28;20129;-80
2021/01/21 09:19:14;;;;;;;22.27;12.20;;;-8.40;90.50;;;;;;5013172;28;20034;-80
2021/01/21 09:22:03;;;;;;;19.92;12.07;;;-8.40;90.60;;;;;;5013699;28;20108;-82
2021/01/21 09:24:30;;;;;;;23.35;12.32;;;-8.40;90.70;;;;;;5013786;28;20018;-80
2021/01/21 09:27:13;;;;;;;17.40;11.98;;;-8.50;90.70;;;;;;4996210;28;20065;-80
2021/01/21 09:29:48;;;;;;;14.20;8.88;;;-8.40;90.90;;;;;;5017553;28;20022;-82
2021/01/21 09:32:15;;;;;;;13.52;6.45;;;-8.40;90.80;;;;;;5013512;28;20033;-79
2021/01/21 09:35:05;;;;;;;18.88;11.25;;;-8.40;90.60;;;;;;5005209;28;20018;-82
2021/01/21 09:37:40;;;;;;;19.63;10.93;;;-8.40;90.70;;;;;;5006263;28;20475;-81
2021/01/21 09:40:08;;;;;;;28.73;8.07;;;-8.50;90.70;;;;;;5013572;28;20038;-81
2021/01/21 09:42:33;;;;;;;14.75;10.25;;;-8.50;90.70;;;;;;4998188;28;20475;-78
2021/01/21 09:45:00;;;;;;;18.42;10.35;;;-8.50;90.80;;;;;;5014930;28;20084;-79
2021/01/21 09:47:26;;;;;;;16.95;8.55;;;-8.60;91.00;;;;;;5011482;28;20024;-78
2021/01/21 09:49:52;;;;;;;22.02;13.38;;;-8.70;91.00;;;;;;4995660;28;20030;-80
2021/01/21 09:52:18;;;;;;;21.83;11.63;;;-8.70;91.10;;;;;;5012480;28;20030;-81
2021/01/21 09:54:44;;;;;;;20.63;9.85;;;-8.70;91.20;;;;;;5012782;28;20071;-80
2021/01/21 09:57:10;;;;;;;15.40;8.98;;;-8.70;91.10;;;;;;5013815;28;20018;-79
2021/01/21 09:59:37;;;;;;;13.40;7.23;;;-8.80;90.90;;;;;;5016597;28;20025;-80
2021/01/21 10:02:07;;;;;;;18.63;9.50;;;-8.80;91.10;;;;;;5001522;28;20038;-79
2021/01/21 10:04:38;;;;;;;26.08;11.80;;;-8.80;91.30;;;;;;5016276;28;20036;-80
2021/01/21 10:07:05;;;;;;;17.48;11.02;;;-8.80;91.50;;;;;;5016513;28;20026;-80
2021/01/21 10:09:32;;;;;;;25.92;9.98;;;-8.70;91.50;;;;;;5015866;28;20038;-80
2021/01/21 10:11:58;;;;;;;;;;;-8.70;91.50;;;;;;5017571;28;20115;-80
2021/01/21 10:14:24;;;;;;;15.27;8.45;;;-8.70;91.50;;;;;;5015032;28;19937;-81
2021/01/21 10:16:50;;;;;;;38.70;13.18;;;-8.60;91.60;;;;;;4998572;28;20501;-79
2021/01/21 10:19:16;;;;;;;21.80;8.57;;;-8.50;91.70;;;;;;5016640;28;20387;-81
2021/01/21 10:21:42;;;;;;;20.20;6.70;;;-8.40;91.70;;;;;;5016193;28;20105;-81
2021/01/21 10:24:08;;;;;;;28.45;13.05;;;-8.40;91.40;;;;;;5016121;28;20344;-81
2021/01/21 10:26:34;;;;;;;23.33;11.65;;;-8.30;91.50;;;;;;5015939;28;20076;-81
2021/01/21 10:29:00;;;;;;;23.33;11.63;;;-8.30;91.50;;;;;;5017945;28;20029;-80
2021/01/21 10:31:26;;;;;;;12.13;8.85;;;-8.30;91.50;;;;;;5017059;28;20097;-80
2021/01/21 10:33:52;;;;;;;22.98;13.55;;;-8.30;91.50;;;;;;5018095;28;20018;-80
2021/01/21 10:36:18;;;;;;;26.42;11.82;;;-8.30;91.40;;;;;;5015235;28;20029;-79
2021/01/21 10:38:44;;;;;;;17.45;8.65;;;-8.30;91.60;;;;;;5016305;28;20030;-81
2021/01/21 10:41:10;;;;;;;19.23;11.90;;;-8.30;91.40;;;;;;5015845;28;20610;-81
2021/01/21 10:43:44;;;;;;;25.90;13.75;;;-8.40;91.50;;;;;;5015613;28;20045;-81
2021/01/21 10:46:10;;;;;;;19.50;8.43;;;-8.30;91.70;;;;;;5016187;28;20034;-79
2021/01/21 10:48:36;;;;;;;16.85;9.40;;;-8.30;91.60;;;;;;4998146;28;20135;-79
2021/01/21 10:51:02;;;;;;;12.52;7.30;;;-8.30;91.50;;;;;;4998929;28;20120;-81
2021/01/21 10:53:28;;;;;;;10.60;6.60;;;-8.30;91.70;;;;;;5016444;28;20049;-80
2021/01/21 10:55:57;;;;;;;16.17;10.05;;;-8.30;91.30;;;;;;5015443;28;20026;-81
2021/01/21 10:58:23;;;;;;;21.95;11.68;;;-8.30;91.50;;;;;;5015342;28;20081;-81
2021/01/21 11:00:49;;;;;;;20.00;11.07;;;-8.30;90.90;;;;;;5014147;28;20041;-80
2021/01/21 11:03:15;;;;;;;15.20;9.88;;;-8.30;90.90;;;;;;5015272;28;20068;-81
2021/01/21 11:05:42;;;;;;;15.93;10.60;;;-8.30;91.00;;;;;;5015478;28;20104;-80
2021/01/21 11:08:08;;;;;;;11.68;8.10;;;-8.30;91.20;;;;;;5015330;28;20054;-80
2021/01/21 11:10:37;;;;;;;27.08;14.70;;;-8.20;91.20;;;;;;5014647;28;20037;-80
2021/01/21 11:13:04;;;;;;;11.35;7.50;;;-8.20;91.30;;;;;;5014915;28;20104;-80
2021/01/21 11:15:30;;;;;;;18.25;11.38;;;-8.20;91.10;;;;;;4997633;28;20499;-80
2021/01/21 11:17:57;;;;;;;16.65;9.80;;;-8.20;91.10;;;;;;4997628;28;20175;-80
2021/01/21 11:20:23;;;;;;;35.38;12.85;;;-8.20;91.10;;;;;;4997555;28;20034;-81
2021/01/21 11:22:49;;;;;;;20.77;11.95;;;-8.10;91.30;;;;;;5015544;28;20022;-80
2021/01/21 11:25:15;;;;;;;21.77;12.68;;;-8.10;91.30;;;;;;5015155;28;20030;-77
2021/01/21 11:27:41;;;;;;;13.55;8.93;;;-8.00;91.20;;;;;;5015702;28;20025;-80
2021/01/21 11:30:09;;;;;;;23.85;13.02;;;-7.90;91.00;;;;;;5013259;28;20101;-80
2021/01/21 11:32:35;;;;;;;18.98;10.18;;;-7.90;91.00;;;;;;5016718;28;20034;-80
2021/01/21 11:35:05;;;;;;;25.00;13.90;;;-7.90;90.90;;;;;;5015245;28;20145;-80
2021/01/21 11:37:31;;;;;;;24.65;11.38;;;-7.90;90.80;;;;;;5015383;28;20101;-79
2021/01/21 11:39:57;;;;;;;23.45;13.70;;;-7.90;90.70;;;;;;5018409;28;20034;-79
2021/01/21 11:42:35;;;;;;;25.33;13.45;;;-7.90;90.80;;;;;;5017627;28;20360;-80
2021/01/21 11:45:05;;;;;;;27.73;15.10;;;-7.90;90.90;;;;;;5016785;28;20435;-81
2021/01/21 11:47:38;;;;;;;27.52;12.77;;;-7.90;90.80;;;;;;5015072;28;20461;-80
2021/01/21 11:50:06;;;;;;;21.27;11.73;;;-7.90;90.90;;;;;;4997073;28;20033;-78
2021/01/21 11:52:32;;;;;;;24.60;12.23;;;-7.90;90.70;;;;;;4996913;28;20029;-80
2021/01/21 11:54:58;;;;;;;25.73;13.68;;;-7.90;90.60;;;;;;4997132;28;20101;-79
2021/01/21 11:57:27;;;;;;;21.98;10.88;;;-7.80;90.50;;;;;;4995738;28;20031;-81
2021/01/21 11:59:52;;;;;;;20.13;11.43;;;-7.80;90.40;;;;;;5014493;28;20049;-80
2021/01/21 12:02:18;;;;;;;25.30;14.63;;;-7.80;90.10;;;;;;5002187;28;20494;-81
2021/01/21 12:04:44;;;;;;;23.00;12.75;;;-7.80;89.60;;;;;;5014777;28;20018;-80
2021/01/21 12:07:10;;;;;;;24.90;15.43;;;-7.80;89.20;;;;;;4997052;28;20026;-81
2021/01/21 12:09:36;;;;;;;25.85;13.60;;;-7.80;88.90;;;;;;5014351;28;20026;-80
2021/01/21 12:12:02;;;;;;;23.13;13.68;;;-7.80;88.50;;;;;;5015502;28;20030;-79
2021/01/21 12:14:27;;;;;;;22.02;11.82;;;-7.80;88.70;;;;;;4998216;28;20092;-80
2021/01/21 12:16:53;;;;;;;30.50;15.73;;;-7.80;88.90;;;;;;5015041;28;20076;-81
2021/01/21 12:19:22;;;;;;;29.75;17.48;;;-7.80;88.90;;;;;;4996819;28;20463;-80
2021/01/21 12:21:48;;;;;;;25.52;13.98;;;-7.90;88.60;;;;;;5015707;28;20022;-81
2021/01/21 12:24:13;;;;;;;27.83;13.93;;;-7.80;87.80;;;;;;5015713;28;20475;-81
2021/01/21 12:26:39;;;;;;;23.25;15.02;;;-7.80;87.60;;;;;;5013034;28;20057;-81
2021/01/21 12:29:05;;;;;;;26.92;12.73;;;-7.80;87.40;;;;;;5014038;28;20025;-79
2021/01/21 12:31:31;;;;;;;27.23;15.70;;;-7.80;87.50;;;;;;5014104;28;20017;-80
2021/01/21 12:33:57;;;;;;;23.23;13.80;;;-7.80;87.50;;;;;;5013661;28;20049;-80
2021/01/21 12:36:32;;;;;;;20.58;12.07;;;-7.80;87.10;;;;;;5014271;28;20034;-81
2021/01/21 12:38:58;;;;;;;26.05;15.13;;;-7.80;87.00;;;;;;5013867;28;20033;-80
2021/01/21 12:41:25;;;;;;;23.85;13.50;;;-7.70;87.70;;;;;;5014249;28;20072;-80